createdAt,value
2022-10-09T00:01:23.841Z,10.95
2022-10-09T00:04:26.630Z,10.94
2022-10-09T00:07:29.266Z,10.89
2022-10-09T00:10:32.160Z,10.88
2022-10-09T00:13:35.626Z,10.94
2022-10-09T00:16:38.346Z,10.90
2022-10-09T00:19:41.181Z,10.83
2022-10-09T00:22:43.882Z,10.80
2022-10-09T00:25:56.716Z,10.80
2022-10-09T00:29:00.010Z,10.78
2022-10-09T00:32:02.714Z,10.78
2022-10-09T00:35:05.848Z,10.76
2022-10-09T00:38:08.677Z,10.74
2022-10-09T00:41:18.359Z,10.70
2022-10-09T00:44:54.318Z,10.73
2022-10-09T00:48:03.215Z,10.75
2022-10-09T00:51:05.759Z,10.73
2022-10-09T00:54:11.970Z,10.71
2022-10-09T00:57:14.563Z,10.77
2022-10-09T01:00:17.921Z,10.69
2022-10-09T01:03:20.495Z,10.68
2022-10-09T01:06:36.141Z,10.69
2022-10-09T01:09:44.729Z,10.70
2022-10-09T01:12:55.897Z,10.66
2022-10-09T01:16:17.424Z,10.69
2022-10-09T01:20:01.177Z,10.67
2022-10-09T01:23:24.500Z,10.72
2022-10-09T01:26:51.284Z,10.75
2022-10-09T01:29:59.636Z,10.81
2022-10-09T01:33:03.192Z,10.82
2022-10-09T01:36:07.967Z,10.76
2022-10-09T01:39:16.157Z,10.74
2022-10-09T01:42:21.616Z,10.76
2022-10-09T01:45:24.419Z,10.82
2022-10-09T01:48:27.714Z,10.84
2022-10-09T01:51:38.723Z,10.88
2022-10-09T01:54:47.674Z,10.93
2022-10-09T01:57:58.413Z,10.92
2022-10-09T02:01:17.812Z,10.93
2022-10-09T02:04:21.424Z,10.91
2022-10-09T02:07:25.151Z,10.91
2022-10-09T02:10:28.800Z,10.94
2022-10-09T02:13:35.947Z,11.13
2022-10-09T02:16:42.138Z,11.35
2022-10-09T02:19:52.813Z,11.61
2022-10-09T02:22:58.212Z,11.93
2022-10-09T02:26:00.702Z,12.10
2022-10-09T02:29:03.773Z,12.29
2022-10-09T02:32:06.294Z,12.57
2022-10-09T02:35:09.260Z,12.73
2022-10-09T02:38:11.762Z,12.81
2022-10-09T02:41:14.492Z,12.76
2022-10-09T02:44:16.985Z,12.74
2022-10-09T02:47:19.711Z,12.74
2022-10-09T02:50:22.325Z,12.73
2022-10-09T02:53:25.080Z,12.72
2022-10-09T02:56:46.781Z,12.83
2022-10-09T02:59:49.509Z,12.75
2022-10-09T03:02:52.763Z,12.75
2022-10-09T03:06:11.351Z,12.80
2022-10-09T03:09:13.943Z,12.88
2022-10-09T03:12:21.288Z,12.97
2022-10-09T03:15:23.823Z,13.01
2022-10-09T03:18:26.516Z,13.06
2022-10-09T03:21:29.063Z,13.12
2022-10-09T03:24:31.983Z,13.31
2022-10-09T03:27:34.430Z,13.27
2022-10-09T03:30:41.063Z,13.22
2022-10-09T03:33:43.573Z,13.13
2022-10-09T03:36:46.723Z,13.08
2022-10-09T03:39:49.263Z,13.04
2022-10-09T03:42:52.153Z,12.95
2022-10-09T03:45:58.219Z,13.05
2022-10-09T03:49:03.077Z,13.05
2022-10-09T03:52:05.489Z,12.93
2022-10-09T03:55:08.758Z,13.09
2022-10-09T03:58:11.273Z,13.14
2022-10-09T04:01:14.101Z,13.14
2022-10-09T04:04:16.926Z,13.12
2022-10-09T04:07:19.450Z,13.21
2022-10-09T04:10:23.904Z,13.20
2022-10-09T04:13:26.607Z,13.38
2022-10-09T04:16:29.402Z,13.34
2022-10-09T04:19:31.936Z,13.25
2022-10-09T04:22:34.747Z,13.27
2022-10-09T04:25:37.147Z,13.19
2022-10-09T04:28:40.096Z,13.29
2022-10-09T04:31:43.323Z,13.22
2022-10-09T04:34:46.103Z,13.23
2022-10-09T04:37:48.517Z,13.22
2022-10-09T04:41:03.310Z,13.16
2022-10-09T04:44:05.810Z,13.01
2022-10-09T04:47:11.271Z,12.90
2022-10-09T04:50:15.294Z,12.96
2022-10-09T04:53:36.710Z,12.93
2022-10-09T04:56:39.694Z,13.10
2022-10-09T04:59:42.395Z,13.11
2022-10-09T05:02:44.780Z,13.22
2022-10-09T05:05:48.164Z,13.41
2022-10-09T05:08:50.800Z,13.52
2022-10-09T05:11:53.598Z,13.57
2022-10-09T05:14:56.011Z,13.59
2022-10-09T05:17:58.784Z,13.65
2022-10-09T05:21:05.005Z,13.56
2022-10-09T05:24:10.330Z,13.54
2022-10-09T05:27:13.056Z,13.53
2022-10-09T05:30:15.983Z,13.44
2022-10-09T05:33:18.380Z,13.44
2022-10-09T05:36:21.754Z,13.45
2022-10-09T05:39:24.229Z,13.53
2022-10-09T05:42:26.972Z,13.55
2022-10-09T05:45:29.492Z,13.54
2022-10-09T05:48:32.298Z,13.49
2022-10-09T05:51:37.280Z,13.38
2022-10-09T05:54:41.841Z,13.32
2022-10-09T05:57:44.345Z,13.36
2022-10-09T06:00:47.120Z,13.30
2022-10-09T06:03:51.830Z,13.31
2022-10-09T06:06:57.154Z,13.28
2022-10-09T06:09:59.968Z,13.27
2022-10-09T06:13:02.437Z,13.29
2022-10-09T06:16:05.383Z,13.30
2022-10-09T06:19:10.209Z,13.35
2022-10-09T06:22:13.048Z,13.25
2022-10-09T06:25:15.533Z,13.22
2022-10-09T06:28:18.360Z,13.23
2022-10-09T06:31:24.391Z,13.46
2022-10-09T06:34:27.414Z,13.72
2022-10-09T06:37:29.898Z,13.97
2022-10-09T06:40:37.396Z,14.13
2022-10-09T06:43:40.461Z,14.23
2022-10-09T06:46:44.489Z,14.43
2022-10-09T06:49:46.996Z,14.55
2022-10-09T06:52:50.498Z,14.56
2022-10-09T06:55:55.289Z,14.65
2022-10-09T06:59:03.190Z,14.77
2022-10-09T07:02:06.208Z,14.93
2022-10-09T07:05:09.466Z,15.01
2022-10-09T07:08:11.914Z,15.07
2022-10-09T07:11:22.627Z,15.18
2022-10-09T07:14:25.066Z,15.30
2022-10-09T07:17:28.419Z,15.42
2022-10-09T07:20:30.923Z,15.48
2022-10-09T07:23:35.427Z,15.65
2022-10-09T07:26:41.069Z,15.80
2022-10-09T07:29:43.987Z,15.97
2022-10-09T07:32:46.971Z,16.06
2022-10-09T07:35:57.851Z,16.10
2022-10-09T07:39:00.324Z,16.15
2022-10-09T07:42:03.777Z,16.25
2022-10-09T07:45:06.802Z,16.39
2022-10-09T07:48:09.526Z,16.39
2022-10-09T07:51:19.268Z,16.44
2022-10-09T07:54:22.020Z,16.63
2022-10-09T07:57:24.527Z,16.74
2022-10-09T08:00:27.549Z,16.89
2022-10-09T08:03:30.271Z,17.01
2022-10-09T08:06:33.597Z,17.14
2022-10-09T08:09:36.372Z,17.24
2022-10-09T08:12:38.779Z,17.31
2022-10-09T08:15:43.122Z,17.44
2022-10-09T08:18:46.300Z,17.47
2022-10-09T08:21:49.054Z,17.59
2022-10-09T08:24:51.609Z,17.71
2022-10-09T08:27:55.243Z,17.86
2022-10-09T08:30:57.862Z,17.91
2022-10-09T08:34:03.037Z,17.99
2022-10-09T08:37:05.468Z,18.07
2022-10-09T08:40:17.389Z,18.16
2022-10-09T08:43:28.737Z,18.25
2022-10-09T08:47:16.776Z,18.36
2022-10-09T08:50:25.553Z,18.42
2022-10-09T08:53:30.987Z,18.54
2022-10-09T08:56:34.254Z,18.64
2022-10-09T08:59:37.056Z,18.68
2022-10-09T09:03:09.075Z,18.68
2022-10-09T09:06:21.314Z,18.77
2022-10-09T09:09:35.961Z,18.91
2022-10-09T09:12:53.847Z,18.97
2022-10-09T09:16:27.694Z,19.10
2022-10-09T09:20:20.938Z,18.95
2022-10-09T09:23:34.066Z,18.91
2022-10-09T09:26:37.035Z,18.98
2022-10-09T09:29:49.776Z,19.02
2022-10-09T09:33:19.502Z,19.29
2022-10-09T09:36:50.138Z,19.29
2022-10-09T09:40:34.838Z,19.18
2022-10-09T09:43:24.705Z,19.40
2022-10-09T09:46:30.390Z,19.59
2022-10-09T09:49:32.920Z,19.76
2022-10-09T09:52:39.905Z,19.78
2022-10-09T09:55:42.644Z,19.92
2022-10-09T09:58:48.866Z,19.87
2022-10-09T10:02:00.542Z,19.89
2022-10-09T10:05:16.769Z,20.15
2022-10-09T10:08:23.913Z,19.99
2022-10-09T10:11:26.935Z,20.12
2022-10-09T10:14:31.370Z,20.40
2022-10-09T10:17:36.887Z,20.59
2022-10-09T10:20:47.030Z,20.48
2022-10-09T10:24:03.732Z,20.37
2022-10-09T10:27:17.512Z,20.37
2022-10-09T10:30:20.317Z,20.06
2022-10-09T10:33:27.259Z,19.87
2022-10-09T10:36:30.114Z,19.89
2022-10-09T10:39:42.956Z,20.10
2022-10-09T10:42:48.448Z,20.46
2022-10-09T10:46:09.950Z,20.38
2022-10-09T10:49:18.579Z,20.01
2022-10-09T10:53:00.640Z,19.72
2022-10-09T10:56:14.578Z,19.51
2022-10-09T10:59:35.455Z,19.33
2022-10-09T11:03:13.029Z,19.22
2022-10-09T11:06:25.154Z,19.24
2022-10-09T11:09:59.813Z,19.30
2022-10-09T11:13:20.779Z,19.29
2022-10-09T11:16:56.520Z,19.44
2022-10-09T11:20:34.505Z,19.65
2022-10-09T11:24:12.490Z,20.06
2022-10-09T11:27:24.038Z,20.40
2022-10-09T11:30:30.672Z,20.55
2022-10-09T11:33:38.873Z,20.49
2022-10-09T11:36:44.457Z,20.46
2022-10-09T11:39:47.023Z,20.35
2022-10-09T11:43:00.430Z,20.07
2022-10-09T11:46:29.721Z,19.95
2022-10-09T11:50:10.696Z,20.05
2022-10-09T11:53:16.050Z,19.97
2022-10-09T11:56:23.011Z,19.80
2022-10-09T11:59:36.349Z,19.79
2022-10-09T12:02:40.770Z,19.61
2022-10-09T12:05:46.381Z,19.44
2022-10-09T12:09:08.298Z,19.52
2022-10-09T12:12:16.970Z,19.70
2022-10-09T12:15:36.752Z,19.91
2022-10-09T12:18:45.948Z,20.13
2022-10-09T12:22:17.074Z,20.47
2022-10-09T12:25:32.620Z,20.59
2022-10-09T12:28:37.603Z,20.52
2022-10-09T12:31:41.702Z,20.47
2022-10-09T12:34:49.841Z,20.62
2022-10-09T12:37:52.703Z,20.41
2022-10-09T12:40:58.856Z,20.40
2022-10-09T12:44:04.280Z,20.68
2022-10-09T12:47:14.632Z,20.72
2022-10-09T12:50:31.820Z,20.77
2022-10-09T12:53:34.347Z,20.85
2022-10-09T12:56:38.840Z,20.95
2022-10-09T12:59:43.564Z,21.07
2022-10-09T13:02:46.617Z,21.32
2022-10-09T13:05:49.713Z,21.42
2022-10-09T13:08:56.478Z,21.56
2022-10-09T13:12:09.019Z,21.48
2022-10-09T13:15:36.353Z,21.76
2022-10-09T13:18:38.920Z,21.91
2022-10-09T13:21:41.767Z,21.96
2022-10-09T13:24:44.529Z,22.09
2022-10-09T13:27:47.494Z,22.37
2022-10-09T13:30:50.827Z,22.28
2022-10-09T13:33:53.980Z,22.20
2022-10-09T13:36:57.012Z,22.21
2022-10-09T13:40:00.374Z,22.24
2022-10-09T13:43:03.154Z,22.00
2022-10-09T13:46:06.460Z,21.64
2022-10-09T13:49:09.052Z,21.78
2022-10-09T13:52:11.757Z,21.75
2022-10-09T13:55:14.789Z,21.45
2022-10-09T13:58:17.609Z,21.34
2022-10-09T14:01:20.187Z,21.19
2022-10-09T14:04:23.085Z,20.85
2022-10-09T14:07:25.564Z,20.97
2022-10-09T14:10:28.486Z,20.89
2022-10-09T14:13:30.979Z,20.69
2022-10-09T14:16:33.751Z,20.52
2022-10-09T14:19:36.387Z,20.26
2022-10-09T14:22:39.249Z,20.08
2022-10-09T14:25:41.820Z,19.95
2022-10-09T14:28:44.613Z,19.88
2022-10-09T14:31:50.943Z,19.83
2022-10-09T14:34:53.905Z,19.84
2022-10-09T14:37:56.432Z,19.91
2022-10-09T14:40:59.130Z,20.03
2022-10-09T14:44:01.574Z,20.21
2022-10-09T14:47:04.789Z,20.20
2022-10-09T14:50:07.989Z,20.12
2022-10-09T14:53:10.908Z,20.14
2022-10-09T14:56:21.090Z,20.15
2022-10-09T14:59:24.595Z,20.10
2022-10-09T15:02:26.985Z,20.04
2022-10-09T15:05:29.905Z,19.91
2022-10-09T15:08:34.735Z,19.74
2022-10-09T15:11:37.563Z,19.64
2022-10-09T15:14:39.956Z,19.42
2022-10-09T15:17:42.790Z,19.22
2022-10-09T15:20:45.783Z,18.96
2022-10-09T15:23:49.613Z,18.79
2022-10-09T15:26:52.052Z,18.67
2022-10-09T15:29:54.828Z,18.44
2022-10-09T15:33:01.139Z,18.34
2022-10-09T15:36:04.069Z,18.23
2022-10-09T15:39:08.887Z,18.11
2022-10-09T15:42:11.700Z,18.04
2022-10-09T15:45:14.129Z,17.98
2022-10-09T15:48:25.497Z,17.97
2022-10-09T15:51:29.994Z,17.96
2022-10-09T15:54:33.023Z,17.88
2022-10-09T15:57:35.538Z,17.85
2022-10-09T16:00:41.756Z,17.98
2022-10-09T16:03:45.020Z,17.81
2022-10-09T16:06:47.624Z,17.71
2022-10-09T16:09:50.361Z,17.73
2022-10-09T16:12:52.988Z,17.62
2022-10-09T16:15:55.911Z,17.46
2022-10-09T16:19:00.110Z,17.32
2022-10-09T16:22:02.892Z,17.19
2022-10-09T16:25:05.768Z,17.20
2022-10-09T16:28:11.635Z,17.03
2022-10-09T16:31:22.724Z,16.99
2022-10-09T16:34:25.457Z,16.83
2022-10-09T16:37:33.753Z,16.83
2022-10-09T16:41:01.269Z,16.60
2022-10-09T16:44:06.343Z,16.44
2022-10-09T16:47:09.074Z,16.34
2022-10-09T16:50:12.296Z,16.30
2022-10-09T16:53:14.986Z,16.15
2022-10-09T16:56:20.169Z,16.06
2022-10-09T16:59:22.988Z,16.02
2022-10-09T17:02:25.833Z,15.91
2022-10-09T17:05:28.672Z,15.96
2022-10-09T17:08:31.516Z,15.82
2022-10-09T17:11:34.491Z,15.86
2022-10-09T17:17:41.005Z,15.59
2022-10-09T17:20:43.543Z,15.46
2022-10-09T17:23:46.643Z,15.52
2022-10-09T17:26:49.258Z,15.35
2022-10-09T17:29:52.102Z,15.26
2022-10-09T17:32:54.908Z,15.05
2022-10-09T17:35:57.930Z,15.03
2022-10-09T17:39:00.655Z,14.91
2022-10-09T17:42:03.524Z,14.93
2022-10-09T17:45:06.605Z,14.88
2022-10-09T17:48:10.095Z,14.76
2022-10-09T17:51:16.462Z,14.70
2022-10-09T17:54:19.226Z,14.66
2022-10-09T17:57:21.733Z,14.59
2022-10-09T18:00:24.580Z,14.53
2022-10-09T18:03:27.288Z,14.51
2022-10-09T18:06:34.850Z,14.48
2022-10-09T18:09:38.428Z,14.44
2022-10-09T18:12:40.945Z,14.39
2022-10-09T18:15:44.205Z,14.30
2022-10-09T18:18:46.914Z,14.24
2022-10-09T18:21:49.799Z,14.20
2022-10-09T18:24:52.337Z,14.22
2022-10-09T18:27:55.128Z,14.14
2022-10-09T18:30:58.696Z,14.09
2022-10-09T18:34:01.694Z,14.03
2022-10-09T18:37:04.172Z,13.97
2022-10-09T18:40:08.212Z,13.87
2022-10-09T18:43:10.750Z,13.79
2022-10-09T18:46:16.085Z,13.75
2022-10-09T18:49:22.690Z,13.73
2022-10-09T18:52:25.815Z,13.66
2022-10-09T18:55:28.446Z,13.62
2022-10-09T18:58:31.917Z,13.60
2022-10-09T19:01:34.740Z,13.52
2022-10-09T19:04:37.706Z,13.44
2022-10-09T19:07:40.555Z,13.40
2022-10-09T19:10:49.538Z,13.37
2022-10-09T19:13:52.324Z,13.25
2022-10-09T19:16:55.003Z,13.32
2022-10-09T19:19:57.535Z,13.32
2022-10-09T19:23:00.283Z,13.29
2022-10-09T19:26:02.795Z,13.31
2022-10-09T19:29:07.296Z,13.38
2022-10-09T19:32:09.806Z,13.48
2022-10-09T19:35:12.711Z,13.57
2022-10-09T19:38:16.092Z,13.58
2022-10-09T19:41:18.955Z,13.79
2022-10-09T19:44:21.652Z,13.94
2022-10-09T19:47:24.637Z,14.00
2022-10-09T19:50:27.169Z,13.92
2022-10-09T19:53:29.956Z,13.97
2022-10-09T19:56:34.034Z,13.98
2022-10-09T19:59:36.778Z,14.00
2022-10-09T20:02:40.189Z,14.01
2022-10-09T20:05:43.799Z,14.04
2022-10-09T20:08:46.320Z,13.98
2022-10-09T20:11:50.036Z,13.84
2022-10-09T20:14:52.514Z,13.72
2022-10-09T20:17:55.457Z,13.58
2022-10-09T20:20:58.799Z,13.37
2022-10-09T20:24:01.832Z,13.27
2022-10-09T20:27:04.416Z,13.16
2022-10-09T20:30:08.014Z,13.00
2022-10-09T20:33:10.513Z,12.87
2022-10-09T20:36:31.845Z,12.79
2022-10-09T20:39:34.403Z,12.82
2022-10-09T20:42:37.169Z,12.76
2022-10-09T20:45:40.953Z,12.65
2022-10-09T20:48:44.491Z,12.71
2022-10-09T20:51:47.032Z,12.64
2022-10-09T20:54:49.937Z,12.54
2022-10-09T20:57:54.935Z,12.43
2022-10-09T21:00:58.235Z,12.36
2022-10-09T21:04:00.654Z,12.24
2022-10-09T21:07:03.302Z,12.14
2022-10-09T21:10:09.329Z,12.08
2022-10-09T21:13:12.782Z,12.01
2022-10-09T21:16:22.223Z,11.92
2022-10-09T21:19:24.939Z,11.94
2022-10-09T21:22:27.405Z,11.83
2022-10-09T21:25:30.204Z,11.68
2022-10-09T21:28:32.740Z,11.63
2022-10-09T21:31:35.534Z,11.62
2022-10-09T21:34:38.029Z,11.59
2022-10-09T21:37:40.809Z,11.54
2022-10-09T21:40:43.992Z,11.71
2022-10-09T21:43:46.696Z,11.87
2022-10-09T21:46:49.138Z,11.81
2022-10-09T21:49:52.600Z,11.69
2022-10-09T21:52:55.039Z,11.65
2022-10-09T21:55:57.952Z,11.59
2022-10-09T21:59:00.676Z,11.62
2022-10-09T22:02:03.999Z,11.51
2022-10-09T22:05:06.957Z,11.41
2022-10-09T22:08:09.410Z,11.33
2022-10-09T22:11:12.256Z,11.23
2022-10-09T22:14:15.022Z,11.15
2022-10-09T22:17:20.131Z,11.07
2022-10-09T22:20:22.564Z,11.01
2022-10-09T22:23:25.266Z,10.93
2022-10-09T22:26:27.991Z,10.88
2022-10-09T22:29:31.023Z,10.85
2022-10-09T22:32:33.459Z,10.74
2022-10-09T22:35:36.213Z,10.71
2022-10-09T22:38:39.267Z,10.69
2022-10-09T22:41:41.954Z,10.76
2022-10-09T22:44:44.392Z,10.79
2022-10-09T22:47:47.855Z,10.82
2022-10-09T22:50:50.514Z,10.89
2022-10-09T22:53:54.352Z,11.05
2022-10-09T22:56:56.966Z,11.13
2022-10-09T22:59:59.722Z,11.40
2022-10-09T23:03:02.134Z,11.38
2022-10-09T23:06:07.464Z,11.25
2022-10-09T23:09:13.369Z,11.12
2022-10-09T23:12:16.142Z,11.02
2022-10-09T23:15:18.518Z,11.02
2022-10-09T23:18:21.459Z,10.93
2022-10-09T23:21:24.033Z,10.84
2022-10-09T23:24:26.776Z,10.71
2022-10-09T23:27:29.219Z,10.61
2022-10-09T23:30:32.341Z,10.47
2022-10-09T23:33:35.214Z,10.43
2022-10-09T23:36:38.219Z,10.58
2022-10-09T23:39:40.633Z,10.53
2022-10-09T23:42:43.403Z,10.43
2022-10-09T23:45:45.874Z,10.36
2022-10-09T23:48:49.595Z,10.21
2022-10-09T23:51:52.011Z,10.13
2022-10-09T23:54:54.717Z,10.14
2022-10-09T23:57:57.162Z,10.06
